<?xml version="1.0" encoding="UTF-8"?>
<gpx version="1.1" creator="https://www.youtrack.es" xsi:schemaLocation="http://www.topografix.com/GPX/1/1 http://www.topografix.com/GPX/1/1/gpx.xsd http://www.garmin.com/xmlschemas/GpxExtensions/v3 http://www.garmin.com/xmlschemas/GpxExtensionsv3.xsd http://www.garmin.com/xmlschemas/TrackPointExtension/v1 http://www.garmin.com/xmlschemas/TrackPointExtensionv1.xsd" xmlns:gpxtpx="http://www.garmin.com/xmlschemas/TrackPointExtension/v1" xmlns:gpxx="http://www.garmin.com/xmlschemas/GpxExtensions/v3" xmlns:xsi="http://www.w3.org/2001/XMLSchema-instance">
  <metadata>
    <link href="https://www.youtrack.es">
      <text>YouTrack.es</text>
    </link>
    <time>2026-05-08T16:45:29Z</time>
  </metadata>
  <trk>
    <src>https://www.youtrack.es</src>
    <link href="https://www.youtrack.es/ruta/33572-bokken-fietsroute-2022">
      <text>YouTrack.es</text>
    </link>
    <trkseg>
      <trkpt lat="52.2294423" lon="4.4912893">
        <ele>0.00000</ele>
        <time>2022-05-02T00:00:00Z</time>
      </trkpt>
      <trkpt lat="52.229558" lon="4.491556">
        <ele>0.00000</ele>
        <time>2022-05-02T00:01:33Z</time>
      </trkpt>
      <trkpt lat="52.229426" lon="4.491899">
        <ele>0.00000</ele>
        <time>2022-05-02T00:03:27Z</time>
      </trkpt>
      <trkpt lat="52.230097" lon="4.492588">
        <ele>0.00000</ele>
        <time>2022-05-02T00:09:31Z</time>
      </trkpt>
      <trkpt lat="52.231089" lon="4.494148">
        <ele>0.00000</ele>
        <time>2022-05-02T00:20:05Z</time>
      </trkpt>
      <trkpt lat="52.231194" lon="4.493989">
        <ele>0.00000</ele>
        <time>2022-05-02T00:21:11Z</time>
      </trkpt>
      <trkpt lat="52.231368" lon="4.493992">
        <ele>0.00000</ele>
        <time>2022-05-02T00:22:31Z</time>
      </trkpt>
      <trkpt lat="52.231469" lon="4.494296">
        <ele>0.00000</ele>
        <time>2022-05-02T00:24:09Z</time>
      </trkpt>
      <trkpt lat="52.231396" lon="4.494433">
        <ele>0.00000</ele>
        <time>2022-05-02T00:25:00Z</time>
      </trkpt>
      <trkpt lat="52.231414" lon="4.494531">
        <ele>0.00000</ele>
        <time>2022-05-02T00:25:29Z</time>
      </trkpt>
      <trkpt lat="52.232625" lon="4.49687">
        <ele>0.00000</ele>
        <time>2022-05-02T00:39:52Z</time>
      </trkpt>
      <trkpt lat="52.233345" lon="4.498729">
        <ele>0.00000</ele>
        <time>2022-05-02T00:50:12Z</time>
      </trkpt>
      <trkpt lat="52.234385" lon="4.499831">
        <ele>0.00000</ele>
        <time>2022-05-02T00:59:42Z</time>
      </trkpt>
      <trkpt lat="52.2343936" lon="4.4998401">
        <ele>0.00000</ele>
        <time>2022-05-02T00:00:00Z</time>
      </trkpt>
      <trkpt lat="52.2353" lon="4.5011">
        <ele>0.00000</ele>
        <time>2022-05-02T00:01:46Z</time>
      </trkpt>
      <trkpt lat="52.237865" lon="4.506326">
        <ele>0.00000</ele>
        <time>2022-05-02T00:07:48Z</time>
      </trkpt>
      <trkpt lat="52.238195" lon="4.50624">
        <ele>0.00000</ele>
        <time>2022-05-02T00:08:18Z</time>
      </trkpt>
      <trkpt lat="52.238533" lon="4.505276">
        <ele>0.00000</ele>
        <time>2022-05-02T00:09:18Z</time>
      </trkpt>
      <trkpt lat="52.241271" lon="4.50088">
        <ele>0.00000</ele>
        <time>2022-05-02T00:14:57Z</time>
      </trkpt>
      <trkpt lat="52.24505" lon="4.495291">
        <ele>0.00000</ele>
        <time>2022-05-02T00:22:28Z</time>
      </trkpt>
      <trkpt lat="52.249214" lon="4.48669">
        <ele>0.00000</ele>
        <time>2022-05-02T00:32:21Z</time>
      </trkpt>
      <trkpt lat="52.249553" lon="4.485444">
        <ele>0.00000</ele>
        <time>2022-05-02T00:33:35Z</time>
      </trkpt>
      <trkpt lat="52.249496" lon="4.484125">
        <ele>0.00000</ele>
        <time>2022-05-02T00:34:46Z</time>
      </trkpt>
      <trkpt lat="52.248992" lon="4.481947">
        <ele>0.00000</ele>
        <time>2022-05-02T00:36:52Z</time>
      </trkpt>
      <trkpt lat="52.24914" lon="4.479892">
        <ele>0.00000</ele>
        <time>2022-05-02T00:38:44Z</time>
      </trkpt>
      <trkpt lat="52.250995" lon="4.476304">
        <ele>0.00000</ele>
        <time>2022-05-02T00:42:58Z</time>
      </trkpt>
      <trkpt lat="52.2512771" lon="4.4758397">
        <ele>0.00000</ele>
        <time>2022-05-02T00:43:33Z</time>
      </trkpt>
      <trkpt lat="52.2515234" lon="4.4756305">
        <ele>0.00000</ele>
        <time>2022-05-02T00:43:58Z</time>
      </trkpt>
      <trkpt lat="52.251632" lon="4.47582">
        <ele>0.00000</ele>
        <time>2022-05-02T00:44:12Z</time>
      </trkpt>
      <trkpt lat="52.253326" lon="4.472461">
        <ele>0.00000</ele>
        <time>2022-05-02T00:48:07Z</time>
      </trkpt>
      <trkpt lat="52.253668" lon="4.472805">
        <ele>0.00000</ele>
        <time>2022-05-02T00:48:43Z</time>
      </trkpt>
      <trkpt lat="52.255799" lon="4.469853">
        <ele>0.00000</ele>
        <time>2022-05-02T00:52:50Z</time>
      </trkpt>
      <trkpt lat="52.25819" lon="4.471739">
        <ele>0.00000</ele>
        <time>2022-05-02T00:56:45Z</time>
      </trkpt>
      <trkpt lat="52.259722" lon="4.47426">
        <ele>0.00000</ele>
        <time>2022-05-02T00:59:57Z</time>
      </trkpt>
      <trkpt lat="52.2597722" lon="4.4742036">
        <ele>0.00000</ele>
        <time>2022-05-02T00:00:00Z</time>
      </trkpt>
      <trkpt lat="52.261783" lon="4.478147">
        <ele>0.00000</ele>
        <time>2022-05-02T00:05:03Z</time>
      </trkpt>
      <trkpt lat="52.262345" lon="4.478386">
        <ele>0.00000</ele>
        <time>2022-05-02T00:05:59Z</time>
      </trkpt>
      <trkpt lat="52.262667" lon="4.478031">
        <ele>0.00000</ele>
        <time>2022-05-02T00:06:36Z</time>
      </trkpt>
      <trkpt lat="52.263127" lon="4.47913">
        <ele>0.00000</ele>
        <time>2022-05-02T00:07:54Z</time>
      </trkpt>
      <trkpt lat="52.263649" lon="4.480972">
        <ele>0.00000</ele>
        <time>2022-05-02T00:09:54Z</time>
      </trkpt>
      <trkpt lat="52.264441" lon="4.482503">
        <ele>0.00000</ele>
        <time>2022-05-02T00:11:52Z</time>
      </trkpt>
      <trkpt lat="52.265173" lon="4.483333">
        <ele>0.00000</ele>
        <time>2022-05-02T00:13:18Z</time>
      </trkpt>
      <trkpt lat="52.265344" lon="4.483228">
        <ele>0.00000</ele>
        <time>2022-05-02T00:13:35Z</time>
      </trkpt>
      <trkpt lat="52.265778" lon="4.48229">
        <ele>0.00000</ele>
        <time>2022-05-02T00:14:45Z</time>
      </trkpt>
      <trkpt lat="52.266434" lon="4.48314">
        <ele>0.00000</ele>
        <time>2022-05-02T00:16:05Z</time>
      </trkpt>
      <trkpt lat="52.266792" lon="4.482788">
        <ele>0.00000</ele>
        <time>2022-05-02T00:16:45Z</time>
      </trkpt>
      <trkpt lat="52.267382" lon="4.483655">
        <ele>0.00000</ele>
        <time>2022-05-02T00:18:02Z</time>
      </trkpt>
      <trkpt lat="52.270858" lon="4.478062">
        <ele>0.00000</ele>
        <time>2022-05-02T00:25:51Z</time>
      </trkpt>
      <trkpt lat="52.270858" lon="4.478062">
        <ele>0.00000</ele>
        <time>2022-05-02T00:25:51Z</time>
      </trkpt>
      <trkpt lat="52.271345" lon="4.477326">
        <ele>0.00000</ele>
        <time>2022-05-02T00:26:55Z</time>
      </trkpt>
      <trkpt lat="52.271615" lon="4.4777">
        <ele>0.00000</ele>
        <time>2022-05-02T00:27:29Z</time>
      </trkpt>
      <trkpt lat="52.271915" lon="4.478235">
        <ele>0.00000</ele>
        <time>2022-05-02T00:28:12Z</time>
      </trkpt>
      <trkpt lat="52.272454" lon="4.479478">
        <ele>0.00000</ele>
        <time>2022-05-02T00:29:41Z</time>
      </trkpt>
      <trkpt lat="52.272565" lon="4.479582">
        <ele>0.00000</ele>
        <time>2022-05-02T00:29:54Z</time>
      </trkpt>
      <trkpt lat="52.272558" lon="4.47983">
        <ele>0.00000</ele>
        <time>2022-05-02T00:30:08Z</time>
      </trkpt>
      <trkpt lat="52.272951" lon="4.480855">
        <ele>0.00000</ele>
        <time>2022-05-02T00:31:20Z</time>
      </trkpt>
      <trkpt lat="52.273537" lon="4.482662">
        <ele>0.00000</ele>
        <time>2022-05-02T00:33:20Z</time>
      </trkpt>
      <trkpt lat="52.277922" lon="4.490638">
        <ele>0.00000</ele>
        <time>2022-05-02T00:43:51Z</time>
      </trkpt>
      <trkpt lat="52.277922" lon="4.490638">
        <ele>0.00000</ele>
        <time>2022-05-02T00:43:51Z</time>
      </trkpt>
      <trkpt lat="52.279907" lon="4.49421">
        <ele>0.00000</ele>
        <time>2022-05-02T00:48:35Z</time>
      </trkpt>
      <trkpt lat="52.280097" lon="4.493625">
        <ele>0.00000</ele>
        <time>2022-05-02T00:49:14Z</time>
      </trkpt>
      <trkpt lat="52.280431" lon="4.492014">
        <ele>0.00000</ele>
        <time>2022-05-02T00:50:55Z</time>
      </trkpt>
      <trkpt lat="52.280673" lon="4.490706">
        <ele>0.00000</ele>
        <time>2022-05-02T00:52:15Z</time>
      </trkpt>
      <trkpt lat="52.280837" lon="4.489444">
        <ele>0.00000</ele>
        <time>2022-05-02T00:53:31Z</time>
      </trkpt>
      <trkpt lat="52.2812" lon="4.4882">
        <ele>0.00000</ele>
        <time>2022-05-02T00:54:52Z</time>
      </trkpt>
      <trkpt lat="52.2815" lon="4.4875">
        <ele>0.00000</ele>
        <time>2022-05-02T00:55:42Z</time>
      </trkpt>
      <trkpt lat="52.2818" lon="4.487">
        <ele>0.00000</ele>
        <time>2022-05-02T00:56:24Z</time>
      </trkpt>
      <trkpt lat="52.2826" lon="4.4867">
        <ele>0.00000</ele>
        <time>2022-05-02T00:57:43Z</time>
      </trkpt>
      <trkpt lat="52.283258" lon="4.485867">
        <ele>0.00000</ele>
        <time>2022-05-02T00:59:03Z</time>
      </trkpt>
      <trkpt lat="52.283781" lon="4.486213">
        <ele>0.00000</ele>
        <time>2022-05-02T00:59:57Z</time>
      </trkpt>
      <trkpt lat="52.2840172" lon="4.4863915">
        <ele>0.00000</ele>
        <time>2022-05-02T00:00:00Z</time>
      </trkpt>
      <trkpt lat="52.284596" lon="4.486797">
        <ele>0.00000</ele>
        <time>2022-05-02T00:00:42Z</time>
      </trkpt>
      <trkpt lat="52.2847392" lon="4.4866222">
        <ele>0.00000</ele>
        <time>2022-05-02T00:00:54Z</time>
      </trkpt>
      <trkpt lat="52.2854" lon="4.4872">
        <ele>0.00000</ele>
        <time>2022-05-02T00:01:43Z</time>
      </trkpt>
      <trkpt lat="52.2856" lon="4.4875">
        <ele>0.00000</ele>
        <time>2022-05-02T00:02:01Z</time>
      </trkpt>
      <trkpt lat="52.285961" lon="4.488289">
        <ele>0.00000</ele>
        <time>2022-05-02T00:02:40Z</time>
      </trkpt>
      <trkpt lat="52.2861" lon="4.4884">
        <ele>0.00000</ele>
        <time>2022-05-02T00:02:51Z</time>
      </trkpt>
      <trkpt lat="52.2862" lon="4.4884">
        <ele>0.00000</ele>
        <time>2022-05-02T00:02:57Z</time>
      </trkpt>
      <trkpt lat="52.2869" lon="4.4877">
        <ele>0.00000</ele>
        <time>2022-05-02T00:03:51Z</time>
      </trkpt>
      <trkpt lat="52.287068" lon="4.48758">
        <ele>0.00000</ele>
        <time>2022-05-02T00:04:03Z</time>
      </trkpt>
      <trkpt lat="52.287068" lon="4.48758">
        <ele>0.00000</ele>
        <time>2022-05-02T00:04:03Z</time>
      </trkpt>
      <trkpt lat="52.2876" lon="4.4872">
        <ele>0.00000</ele>
        <time>2022-05-02T00:04:41Z</time>
      </trkpt>
      <trkpt lat="52.2882" lon="4.4869">
        <ele>0.00000</ele>
        <time>2022-05-02T00:05:22Z</time>
      </trkpt>
      <trkpt lat="52.2894" lon="4.4865">
        <ele>0.00000</ele>
        <time>2022-05-02T00:06:43Z</time>
      </trkpt>
      <trkpt lat="52.289577" lon="4.486537">
        <ele>0.00000</ele>
        <time>2022-05-02T00:06:55Z</time>
      </trkpt>
      <trkpt lat="52.290222" lon="4.487175">
        <ele>0.00000</ele>
        <time>2022-05-02T00:07:44Z</time>
      </trkpt>
      <trkpt lat="52.290745" lon="4.487823">
        <ele>0.00000</ele>
        <time>2022-05-02T00:08:27Z</time>
      </trkpt>
      <trkpt lat="52.292056" lon="4.490035">
        <ele>0.00000</ele>
        <time>2022-05-02T00:10:31Z</time>
      </trkpt>
      <trkpt lat="52.29186" lon="4.490688">
        <ele>0.00000</ele>
        <time>2022-05-02T00:11:00Z</time>
      </trkpt>
      <trkpt lat="52.291641" lon="4.49107">
        <ele>0.00000</ele>
        <time>2022-05-02T00:11:22Z</time>
      </trkpt>
      <trkpt lat="52.290969" lon="4.491936">
        <ele>0.00000</ele>
        <time>2022-05-02T00:12:18Z</time>
      </trkpt>
      <trkpt lat="52.290826" lon="4.4924">
        <ele>0.00000</ele>
        <time>2022-05-02T00:12:39Z</time>
      </trkpt>
      <trkpt lat="52.290586" lon="4.493831">
        <ele>0.00000</ele>
        <time>2022-05-02T00:13:38Z</time>
      </trkpt>
      <trkpt lat="52.290281" lon="4.494997">
        <ele>0.00000</ele>
        <time>2022-05-02T00:14:29Z</time>
      </trkpt>
      <trkpt lat="52.290037" lon="4.495526">
        <ele>0.00000</ele>
        <time>2022-05-02T00:14:56Z</time>
      </trkpt>
      <trkpt lat="52.290037" lon="4.495526">
        <ele>0.00000</ele>
        <time>2022-05-02T00:14:56Z</time>
      </trkpt>
      <trkpt lat="52.2899" lon="4.4958">
        <ele>0.00000</ele>
        <time>2022-05-02T00:15:10Z</time>
      </trkpt>
      <trkpt lat="52.2896" lon="4.4961">
        <ele>0.00000</ele>
        <time>2022-05-02T00:15:33Z</time>
      </trkpt>
      <trkpt lat="52.285523" lon="4.499564">
        <ele>0.00000</ele>
        <time>2022-05-02T00:20:35Z</time>
      </trkpt>
      <trkpt lat="52.2842" lon="4.5008">
        <ele>0.00000</ele>
        <time>2022-05-02T00:22:15Z</time>
      </trkpt>
      <trkpt lat="52.283165" lon="4.501967">
        <ele>0.00000</ele>
        <time>2022-05-02T00:23:38Z</time>
      </trkpt>
      <trkpt lat="52.284076" lon="4.503587">
        <ele>0.00000</ele>
        <time>2022-05-02T00:25:07Z</time>
      </trkpt>
      <trkpt lat="52.284076" lon="4.503587">
        <ele>0.00000</ele>
        <time>2022-05-02T00:25:07Z</time>
      </trkpt>
      <trkpt lat="52.2849" lon="4.5051">
        <ele>0.00000</ele>
        <time>2022-05-02T00:26:28Z</time>
      </trkpt>
      <trkpt lat="52.285486" lon="4.505936">
        <ele>0.00000</ele>
        <time>2022-05-02T00:27:19Z</time>
      </trkpt>
      <trkpt lat="52.286388" lon="4.506954">
        <ele>0.00000</ele>
        <time>2022-05-02T00:28:31Z</time>
      </trkpt>
      <trkpt lat="52.286743" lon="4.507451">
        <ele>0.00000</ele>
        <time>2022-05-02T00:29:02Z</time>
      </trkpt>
      <trkpt lat="52.287164" lon="4.50819">
        <ele>0.00000</ele>
        <time>2022-05-02T00:29:43Z</time>
      </trkpt>
      <trkpt lat="52.2868" lon="4.5088">
        <ele>0.00000</ele>
        <time>2022-05-02T00:30:17Z</time>
      </trkpt>
      <trkpt lat="52.286754" lon="4.508983">
        <ele>0.00000</ele>
        <time>2022-05-02T00:30:25Z</time>
      </trkpt>
      <trkpt lat="52.286733" lon="4.509475">
        <ele>0.00000</ele>
        <time>2022-05-02T00:30:45Z</time>
      </trkpt>
      <trkpt lat="52.286691" lon="4.509704">
        <ele>0.00000</ele>
        <time>2022-05-02T00:30:54Z</time>
      </trkpt>
      <trkpt lat="52.285687" lon="4.513478">
        <ele>0.00000</ele>
        <time>2022-05-02T00:33:40Z</time>
      </trkpt>
      <trkpt lat="52.285687" lon="4.513478">
        <ele>0.00000</ele>
        <time>2022-05-02T00:33:40Z</time>
      </trkpt>
      <trkpt lat="52.2856" lon="4.5138">
        <ele>0.00000</ele>
        <time>2022-05-02T00:33:54Z</time>
      </trkpt>
      <trkpt lat="52.2851" lon="4.5152">
        <ele>0.00000</ele>
        <time>2022-05-02T00:34:59Z</time>
      </trkpt>
      <trkpt lat="52.285034" lon="4.515997">
        <ele>0.00000</ele>
        <time>2022-05-02T00:35:31Z</time>
      </trkpt>
      <trkpt lat="52.284743" lon="4.517093">
        <ele>0.00000</ele>
        <time>2022-05-02T00:36:19Z</time>
      </trkpt>
      <trkpt lat="52.284292" lon="4.518332">
        <ele>0.00000</ele>
        <time>2022-05-02T00:37:17Z</time>
      </trkpt>
      <trkpt lat="52.28404" lon="4.51887">
        <ele>0.00000</ele>
        <time>2022-05-02T00:37:45Z</time>
      </trkpt>
      <trkpt lat="52.283996" lon="4.518927">
        <ele>0.00000</ele>
        <time>2022-05-02T00:37:48Z</time>
      </trkpt>
      <trkpt lat="52.283915" lon="4.51894">
        <ele>0.00000</ele>
        <time>2022-05-02T00:37:54Z</time>
      </trkpt>
      <trkpt lat="52.283835" lon="4.518889">
        <ele>0.00000</ele>
        <time>2022-05-02T00:37:59Z</time>
      </trkpt>
      <trkpt lat="52.283357" lon="4.518386">
        <ele>0.00000</ele>
        <time>2022-05-02T00:38:37Z</time>
      </trkpt>
      <trkpt lat="52.283289" lon="4.518275">
        <ele>0.00000</ele>
        <time>2022-05-02T00:38:43Z</time>
      </trkpt>
      <trkpt lat="52.283285" lon="4.518179">
        <ele>0.00000</ele>
        <time>2022-05-02T00:38:47Z</time>
      </trkpt>
      <trkpt lat="52.283302" lon="4.518105">
        <ele>0.00000</ele>
        <time>2022-05-02T00:38:50Z</time>
      </trkpt>
      <trkpt lat="52.284324" lon="4.518855">
        <ele>0.00000</ele>
        <time>2022-05-02T00:40:04Z</time>
      </trkpt>
      <trkpt lat="52.284764" lon="4.519272">
        <ele>0.00000</ele>
        <time>2022-05-02T00:40:37Z</time>
      </trkpt>
      <trkpt lat="52.285045" lon="4.519612">
        <ele>0.00000</ele>
        <time>2022-05-02T00:41:00Z</time>
      </trkpt>
      <trkpt lat="52.284904" lon="4.519919">
        <ele>0.00000</ele>
        <time>2022-05-02T00:41:16Z</time>
      </trkpt>
      <trkpt lat="52.284542" lon="4.519479">
        <ele>0.00000</ele>
        <time>2022-05-02T00:41:45Z</time>
      </trkpt>
      <trkpt lat="52.284133" lon="4.519129">
        <ele>0.00000</ele>
        <time>2022-05-02T00:42:16Z</time>
      </trkpt>
      <trkpt lat="52.283958" lon="4.519585">
        <ele>0.00000</ele>
        <time>2022-05-02T00:42:37Z</time>
      </trkpt>
      <trkpt lat="52.283958" lon="4.519585">
        <ele>0.00000</ele>
        <time>2022-05-02T00:42:37Z</time>
      </trkpt>
      <trkpt lat="52.283851" lon="4.519862">
        <ele>0.00000</ele>
        <time>2022-05-02T00:42:50Z</time>
      </trkpt>
      <trkpt lat="52.283682" lon="4.520142">
        <ele>0.00000</ele>
        <time>2022-05-02T00:43:06Z</time>
      </trkpt>
      <trkpt lat="52.282723" lon="4.520963">
        <ele>0.00000</ele>
        <time>2022-05-02T00:44:17Z</time>
      </trkpt>
      <trkpt lat="52.282491" lon="4.521249">
        <ele>0.00000</ele>
        <time>2022-05-02T00:44:36Z</time>
      </trkpt>
      <trkpt lat="52.281289" lon="4.524092">
        <ele>0.00000</ele>
        <time>2022-05-02T00:46:55Z</time>
      </trkpt>
      <trkpt lat="52.282377" lon="4.525353">
        <ele>0.00000</ele>
        <time>2022-05-02T00:48:23Z</time>
      </trkpt>
      <trkpt lat="52.282457" lon="4.525525">
        <ele>0.00000</ele>
        <time>2022-05-02T00:48:32Z</time>
      </trkpt>
      <trkpt lat="52.28242" lon="4.525755">
        <ele>0.00000</ele>
        <time>2022-05-02T00:48:41Z</time>
      </trkpt>
      <trkpt lat="52.282082" lon="4.526505">
        <ele>0.00000</ele>
        <time>2022-05-02T00:49:19Z</time>
      </trkpt>
      <trkpt lat="52.281063" lon="4.528361">
        <ele>0.00000</ele>
        <time>2022-05-02T00:50:59Z</time>
      </trkpt>
      <trkpt lat="52.281063" lon="4.528361">
        <ele>0.00000</ele>
        <time>2022-05-02T00:50:59Z</time>
      </trkpt>
      <trkpt lat="52.280356" lon="4.529553">
        <ele>0.00000</ele>
        <time>2022-05-02T00:52:06Z</time>
      </trkpt>
      <trkpt lat="52.279986" lon="4.530064">
        <ele>0.00000</ele>
        <time>2022-05-02T00:52:38Z</time>
      </trkpt>
      <trkpt lat="52.278038" lon="4.534029">
        <ele>0.00000</ele>
        <time>2022-05-02T00:56:02Z</time>
      </trkpt>
      <trkpt lat="52.277744" lon="4.534753">
        <ele>0.00000</ele>
        <time>2022-05-02T00:56:37Z</time>
      </trkpt>
      <trkpt lat="52.277744" lon="4.534753">
        <ele>0.00000</ele>
        <time>2022-05-02T00:56:37Z</time>
      </trkpt>
      <trkpt lat="52.277668" lon="4.534946">
        <ele>0.00000</ele>
        <time>2022-05-02T00:56:46Z</time>
      </trkpt>
      <trkpt lat="52.277618" lon="4.535234">
        <ele>0.00000</ele>
        <time>2022-05-02T00:56:58Z</time>
      </trkpt>
      <trkpt lat="52.277714" lon="4.535831">
        <ele>0.00000</ele>
        <time>2022-05-02T00:57:23Z</time>
      </trkpt>
      <trkpt lat="52.277034" lon="4.536423">
        <ele>0.00000</ele>
        <time>2022-05-02T00:58:14Z</time>
      </trkpt>
      <trkpt lat="52.276925" lon="4.536613">
        <ele>0.00000</ele>
        <time>2022-05-02T00:58:24Z</time>
      </trkpt>
      <trkpt lat="52.27656" lon="4.537502">
        <ele>0.00000</ele>
        <time>2022-05-02T00:59:07Z</time>
      </trkpt>
      <trkpt lat="52.276509" lon="4.537543">
        <ele>0.00000</ele>
        <time>2022-05-02T00:59:11Z</time>
      </trkpt>
      <trkpt lat="52.276422" lon="4.537536">
        <ele>0.00000</ele>
        <time>2022-05-02T00:59:17Z</time>
      </trkpt>
      <trkpt lat="52.276022" lon="4.537272">
        <ele>0.00000</ele>
        <time>2022-05-02T00:59:45Z</time>
      </trkpt>
      <trkpt lat="52.275847" lon="4.537279">
        <ele>0.00000</ele>
        <time>2022-05-02T00:59:57Z</time>
      </trkpt>
      <trkpt lat="52.2758254" lon="4.5372677">
        <ele>0.00000</ele>
        <time>2022-05-02T00:00:00Z</time>
      </trkpt>
      <trkpt lat="52.270878" lon="4.540003">
        <ele>0.00000</ele>
        <time>2022-05-02T00:06:47Z</time>
      </trkpt>
      <trkpt lat="52.269493" lon="4.542056">
        <ele>0.00000</ele>
        <time>2022-05-02T00:09:13Z</time>
      </trkpt>
      <trkpt lat="52.268253" lon="4.542796">
        <ele>0.00000</ele>
        <time>2022-05-02T00:10:56Z</time>
      </trkpt>
      <trkpt lat="52.267627" lon="4.543529">
        <ele>0.00000</ele>
        <time>2022-05-02T00:11:56Z</time>
      </trkpt>
      <trkpt lat="52.265607" lon="4.547371">
        <ele>0.00000</ele>
        <time>2022-05-02T00:15:57Z</time>
      </trkpt>
      <trkpt lat="52.265557" lon="4.547171">
        <ele>0.00000</ele>
        <time>2022-05-02T00:16:07Z</time>
      </trkpt>
      <trkpt lat="52.264714" lon="4.546236">
        <ele>0.00000</ele>
        <time>2022-05-02T00:17:27Z</time>
      </trkpt>
      <trkpt lat="52.263707" lon="4.545543">
        <ele>0.00000</ele>
        <time>2022-05-02T00:18:52Z</time>
      </trkpt>
      <trkpt lat="52.261295" lon="4.543401">
        <ele>0.00000</ele>
        <time>2022-05-02T00:22:26Z</time>
      </trkpt>
      <trkpt lat="52.260903" lon="4.543433">
        <ele>0.00000</ele>
        <time>2022-05-02T00:22:56Z</time>
      </trkpt>
      <trkpt lat="52.260903" lon="4.543433">
        <ele>0.00000</ele>
        <time>2022-05-02T00:22:56Z</time>
      </trkpt>
      <trkpt lat="52.260372" lon="4.544536">
        <ele>0.00000</ele>
        <time>2022-05-02T00:24:03Z</time>
      </trkpt>
      <trkpt lat="52.260072" lon="4.544543">
        <ele>0.00000</ele>
        <time>2022-05-02T00:24:26Z</time>
      </trkpt>
      <trkpt lat="52.259846" lon="4.544247">
        <ele>0.00000</ele>
        <time>2022-05-02T00:24:49Z</time>
      </trkpt>
      <trkpt lat="52.259849" lon="4.543683">
        <ele>0.00000</ele>
        <time>2022-05-02T00:25:16Z</time>
      </trkpt>
      <trkpt lat="52.260537" lon="4.541642">
        <ele>0.00000</ele>
        <time>2022-05-02T00:27:07Z</time>
      </trkpt>
      <trkpt lat="52.260576" lon="4.541203">
        <ele>0.00000</ele>
        <time>2022-05-02T00:27:28Z</time>
      </trkpt>
      <trkpt lat="52.260419" lon="4.540801">
        <ele>0.00000</ele>
        <time>2022-05-02T00:27:51Z</time>
      </trkpt>
      <trkpt lat="52.259377" lon="4.539637">
        <ele>0.00000</ele>
        <time>2022-05-02T00:29:29Z</time>
      </trkpt>
      <trkpt lat="52.259956" lon="4.53793">
        <ele>0.00000</ele>
        <time>2022-05-02T00:31:02Z</time>
      </trkpt>
      <trkpt lat="52.259373" lon="4.53693">
        <ele>0.00000</ele>
        <time>2022-05-02T00:32:08Z</time>
      </trkpt>
      <trkpt lat="52.260502" lon="4.533253">
        <ele>0.00000</ele>
        <time>2022-05-02T00:35:24Z</time>
      </trkpt>
      <trkpt lat="52.25741" lon="4.529279">
        <ele>0.00000</ele>
        <time>2022-05-02T00:40:30Z</time>
      </trkpt>
      <trkpt lat="52.2565" lon="4.5286">
        <ele>0.00000</ele>
        <time>2022-05-02T00:41:48Z</time>
      </trkpt>
      <trkpt lat="52.255891" lon="4.528384">
        <ele>0.00000</ele>
        <time>2022-05-02T00:42:37Z</time>
      </trkpt>
      <trkpt lat="52.2545" lon="4.5272">
        <ele>0.00000</ele>
        <time>2022-05-02T00:44:39Z</time>
      </trkpt>
      <trkpt lat="52.2537" lon="4.5269">
        <ele>0.00000</ele>
        <time>2022-05-02T00:45:43Z</time>
      </trkpt>
      <trkpt lat="52.2527" lon="4.5259">
        <ele>0.00000</ele>
        <time>2022-05-02T00:47:14Z</time>
      </trkpt>
      <trkpt lat="52.2504" lon="4.5216">
        <ele>0.00000</ele>
        <time>2022-05-02T00:51:47Z</time>
      </trkpt>
      <trkpt lat="52.245568" lon="4.515071">
        <ele>0.00000</ele>
        <time>2022-05-02T00:59:55Z</time>
      </trkpt>
      <trkpt lat="52.2456248" lon="4.5150912">
        <ele>0.00000</ele>
        <time>2022-05-02T00:00:00Z</time>
      </trkpt>
      <trkpt lat="52.2425" lon="4.5111">
        <ele>0.00000</ele>
        <time>2022-05-02T00:10:21Z</time>
      </trkpt>
      <trkpt lat="52.2418" lon="4.5113">
        <ele>0.00000</ele>
        <time>2022-05-02T00:12:12Z</time>
      </trkpt>
      <trkpt lat="52.2387" lon="4.5077">
        <ele>0.00000</ele>
        <time>2022-05-02T00:22:07Z</time>
      </trkpt>
      <trkpt lat="52.238606" lon="4.506798">
        <ele>0.00000</ele>
        <time>2022-05-02T00:23:34Z</time>
      </trkpt>
      <trkpt lat="52.238409" lon="4.506327">
        <ele>0.00000</ele>
        <time>2022-05-02T00:24:29Z</time>
      </trkpt>
      <trkpt lat="52.238078" lon="4.506218">
        <ele>0.00000</ele>
        <time>2022-05-02T00:25:22Z</time>
      </trkpt>
      <trkpt lat="52.237865" lon="4.506326">
        <ele>0.00000</ele>
        <time>2022-05-02T00:25:57Z</time>
      </trkpt>
      <trkpt lat="52.235002" lon="4.500582">
        <ele>0.00000</ele>
        <time>2022-05-02T00:37:46Z</time>
      </trkpt>
      <trkpt lat="52.233345" lon="4.498729">
        <ele>0.00000</ele>
        <time>2022-05-02T00:43:00Z</time>
      </trkpt>
      <trkpt lat="52.232625" lon="4.49687">
        <ele>0.00000</ele>
        <time>2022-05-02T00:46:31Z</time>
      </trkpt>
      <trkpt lat="52.231414" lon="4.494531">
        <ele>0.00000</ele>
        <time>2022-05-02T00:51:24Z</time>
      </trkpt>
      <trkpt lat="52.231469" lon="4.494296">
        <ele>0.00000</ele>
        <time>2022-05-02T00:51:48Z</time>
      </trkpt>
      <trkpt lat="52.231368" lon="4.493992">
        <ele>0.00000</ele>
        <time>2022-05-02T00:52:21Z</time>
      </trkpt>
      <trkpt lat="52.231089" lon="4.494148">
        <ele>0.00000</ele>
        <time>2022-05-02T00:53:07Z</time>
      </trkpt>
      <trkpt lat="52.230097" lon="4.492588">
        <ele>0.00000</ele>
        <time>2022-05-02T00:56:43Z</time>
      </trkpt>
      <trkpt lat="52.229426" lon="4.491899">
        <ele>0.00000</ele>
        <time>2022-05-02T00:58:46Z</time>
      </trkpt>
      <trkpt lat="52.229558" lon="4.491556">
        <ele>0.00000</ele>
        <time>2022-05-02T00:59:25Z</time>
      </trkpt>
      <trkpt lat="52.229419" lon="4.491275">
        <ele>0.00000</ele>
        <time>2022-05-02T01:00:00Z</time>
      </trkpt>
    </trkseg>
  </trk>
</gpx>
